Time;durP1;ratioP1;P1;durP2;ratioP2;P2;SDS_P1;SDS_P2;PMS_P1;PMS_P2;Temp;Humidity;BMP_temperature;BMP_pressure;BME280_temperature;BME280_humidity;BME280_pressure;Samples;Min_cycle;Max_cycle;Signal;HPM_P1;HPM_P2
2022/08/01 00:01:15;;;;;;;9.07;5.75;;;18.40;99.90;;;;;;4938177;28;94902;-31
2022/08/01 00:03:41;;;;;;;5.00;4.47;;;18.40;99.90;;;;;;4938941;28;94343;-35
2022/08/01 00:06:06;;;;;;;5.65;5.03;;;18.40;99.90;;;;;;4938496;28;92882;-34
2022/08/01 00:08:32;;;;;;;5.88;5.30;;;18.40;99.90;;;;;;4938041;28;94308;-33
2022/08/01 00:10:58;;;;;;;9.88;7.40;;;18.40;99.90;;;;;;4938522;28;95881;-31
2022/08/01 00:13:23;;;;;;;7.93;6.88;;;18.40;99.90;;;;;;4938472;28;93765;-33
2022/08/01 00:15:49;;;;;;;8.60;5.72;;;18.30;99.90;;;;;;4973347;22;93127;-33
2022/08/01 00:18:14;;;;;;;14.02;7.10;;;18.30;99.90;;;;;;4938345;28;95307;-31
2022/08/01 00:20:40;;;;;;;7.22;6.13;;;18.30;99.90;;;;;;4936429;28;95434;-33
2022/08/01 00:23:06;;;;;;;8.25;6.22;;;18.30;99.90;;;;;;4937908;28;93934;-34
2022/08/01 00:25:31;;;;;;;6.47;5.50;;;18.30;99.90;;;;;;4938534;28;93746;-30
2022/08/01 00:27:57;;;;;;;7.70;6.97;;;18.30;99.90;;;;;;4938534;28;95240;-31
2022/08/01 00:30:23;;;;;;;11.32;7.43;;;18.30;99.90;;;;;;4937733;28;94548;-30
2022/08/01 00:32:48;;;;;;;7.50;6.82;;;18.30;99.90;;;;;;4938272;28;93197;-32
2022/08/01 00:35:14;;;;;;;12.13;7.05;;;18.30;99.90;;;;;;4937448;28;92903;-32
2022/08/01 00:37:40;;;;;;;9.57;6.28;;;18.20;99.90;;;;;;4938899;28;94152;-31
2022/08/01 00:40:06;;;;;;;9.10;7.22;;;18.20;99.90;;;;;;4937860;28;94532;-34
2022/08/01 00:42:32;;;;;;;7.43;5.95;;;18.20;99.90;;;;;;4937911;28;94320;-31
2022/08/01 00:44:58;;;;;;;9.30;6.68;;;18.20;99.90;;;;;;4938029;28;93509;-32
2022/08/01 00:47:23;;;;;;;10.52;6.65;;;18.20;99.90;;;;;;4937392;28;95343;-33
2022/08/01 00:49:49;;;;;;;10.50;8.55;;;18.20;99.90;;;;;;4937405;28;94627;-31
2022/08/01 00:52:15;;;;;;;9.70;7.68;;;18.20;99.90;;;;;;4937905;28;92218;-31
2022/08/01 00:54:40;;;;;;;9.82;7.05;;;18.10;99.90;;;;;;4937965;28;93788;-33
2022/08/01 00:57:06;;;;;;;12.27;7.78;;;18.10;99.90;;;;;;4938112;28;94498;-31
2022/08/01 00:59:34;;;;;;;7.88;7.07;;;18.10;99.90;;;;;;4937542;28;94723;-30
2022/08/01 01:01:59;;;;;;;8.00;7.10;;;18.10;99.90;;;;;;4938143;28;92835;-30
2022/08/01 01:04:25;;;;;;;12.70;6.97;;;18.10;99.90;;;;;;4937564;28;93757;-30
2022/08/01 01:07:22;;;;;;;11.80;8.07;;;18.00;99.90;;;;;;4935590;28;94516;-31
2022/08/01 01:10:20;;;;;;;9.10;7.38;;;18.00;99.90;;;;;;4936051;28;94575;-31
2022/08/01 01:13:04;;;;;;;9.45;7.43;;;18.10;99.90;;;;;;4920462;28;93316;-30
2022/08/01 01:15:51;;;;;;;9.98;6.70;;;18.00;99.90;;;;;;4924913;28;94230;-31
2022/08/01 01:18:42;;;;;;;8.25;7.32;;;18.00;99.90;;;;;;4937202;28;95346;-31
2022/08/01 01:21:14;;;;;;;8.60;6.80;;;18.00;99.90;;;;;;4937828;28;94491;-31
2022/08/01 01:24:10;;;;;;;16.17;8.38;;;18.00;99.90;;;;;;4937804;28;93613;-30
2022/08/01 01:26:52;;;;;;;9.55;7.40;;;18.00;99.90;;;;;;4938219;28;93170;-30
2022/08/01 01:29:23;;;;;;;12.98;8.35;;;17.90;99.90;;;;;;4919546;28;93928;-30
2022/08/01 01:32:02;;;;;;;9.32;6.68;;;17.90;99.90;;;;;;4937349;28;93793;-33
2022/08/01 01:34:29;;;;;;;14.45;7.18;;;17.90;99.90;;;;;;4937039;28;93948;-32
2022/08/01 01:36:57;;;;;;;12.93;7.53;;;17.90;99.90;;;;;;4935796;28;94919;-32
2022/08/01 01:39:24;;;;;;;;;;;17.90;99.90;;;;;;4937187;28;94689;-33
2022/08/01 01:41:51;;;;;;;13.35;7.82;;;17.90;99.90;;;;;;4938912;28;94153;-32
2022/08/01 01:44:18;;;;;;;8.63;7.40;;;17.90;99.90;;;;;;4936871;28;94538;-31
2022/08/01 01:46:44;;;;;;;7.68;6.65;;;17.90;99.90;;;;;;4937471;28;94371;-30
2022/08/01 01:49:11;;;;;;;8.73;7.65;;;17.90;99.90;;;;;;4936601;28;94930;-33
2022/08/01 01:51:39;;;;;;;8.70;6.00;;;17.90;99.90;;;;;;4937133;28;94894;-32
2022/08/01 01:54:06;;;;;;;;;;;17.90;99.90;;;;;;4938068;28;93823;-31
2022/08/01 01:56:33;;;;;;;12.60;7.97;;;17.90;99.90;;;;;;4938297;28;93067;-34
2022/08/01 01:59:02;;;;;;;11.93;7.05;;;17.90;99.90;;;;;;4937207;28;94743;-30
2022/08/01 02:01:30;;;;;;;11.85;7.35;;;17.90;99.90;;;;;;4936263;28;94612;-31
2022/08/01 02:03:58;;;;;;;10.45;7.78;;;17.90;99.90;;;;;;4940552;28;93138;-32
2022/08/01 02:06:26;;;;;;;19.85;7.60;;;17.90;99.90;;;;;;4939266;28;92661;-32
2022/08/01 02:08:54;;;;;;;14.85;7.97;;;17.90;99.90;;;;;;4940021;28;94711;-32
2022/08/01 02:11:21;;;;;;;9.35;7.45;;;17.90;99.90;;;;;;4940256;28;95052;-31
2022/08/01 02:14:02;;;;;;;13.17;6.50;;;17.90;99.90;;;;;;4941014;28;94074;-30
2022/08/01 02:16:41;;;;;;;7.18;6.00;;;17.90;99.90;;;;;;4940147;28;94309;-33
2022/08/01 02:19:07;;;;;;;12.82;7.43;;;17.90;99.90;;;;;;4940612;28;93867;-32
2022/08/01 02:21:35;;;;;;;11.18;6.55;;;17.90;99.90;;;;;;4939971;28;94218;-31
2022/08/01 02:24:31;;;;;;;7.80;6.35;;;17.90;99.90;;;;;;4940087;28;94166;-30
2022/08/01 02:27:01;;;;;;;6.38;5.88;;;17.90;99.90;;;;;;4939499;28;94237;-34
2022/08/01 02:29:53;;;;;;;5.32;4.80;;;17.90;99.90;;;;;;4939472;28;95201;-32
2022/08/01 02:32:45;;;;;;;5.65;5.00;;;17.90;99.90;;;;;;4940072;28;94900;-31
2022/08/01 02:35:17;;;;;;;5.68;5.07;;;17.80;99.90;;;;;;4940143;28;94457;-31
2022/08/01 02:37:45;;;;;;;4.18;3.78;;;17.80;99.90;;;;;;4940646;28;93375;-30
2022/08/01 02:40:13;;;;;;;12.98;5.68;;;17.90;99.90;;;;;;4939411;28;95159;-30
2022/08/01 02:42:44;;;;;;;5.63;5.05;;;17.90;99.90;;;;;;4940341;28;95043;-33
2022/08/01 02:45:12;;;;;;;5.68;4.95;;;17.80;99.90;;;;;;4940133;28;91920;-31
2022/08/01 02:47:39;;;;;;;6.10;5.50;;;17.80;99.90;;;;;;4941030;28;93853;-34
2022/08/01 02:50:07;;;;;;;4.22;3.83;;;17.80;99.90;;;;;;4940430;28;95163;-30
2022/08/01 02:52:34;;;;;;;;;;;17.80;99.90;;;;;;4939641;28;94612;-30
2022/08/01 02:55:01;;;;;;;3.72;3.42;;;17.80;99.90;;;;;;4941186;28;93721;-32
2022/08/01 02:57:28;;;;;;;8.93;4.40;;;17.70;99.90;;;;;;4940248;28;94286;-33
2022/08/01 02:59:55;;;;;;;3.92;3.53;;;17.70;99.90;;;;;;4939534;28;94927;-31
2022/08/01 03:02:22;;;;;;;5.13;3.35;;;17.70;99.90;;;;;;4939265;28;94262;-32
2022/08/01 03:04:51;;;;;;;5.07;3.73;;;17.70;99.90;;;;;;4939822;28;93549;-34
2022/08/01 03:07:18;;;;;;;7.30;3.97;;;17.70;99.90;;;;;;4939237;28;93594;-34
2022/08/01 03:09:45;;;;;;;7.47;4.23;;;17.60;99.90;;;;;;4940183;28;93991;-32
2022/08/01 03:12:16;;;;;;;3.67;3.30;;;17.60;99.90;;;;;;4938921;28;95628;-31
2022/08/01 03:14:44;;;;;;;5.25;3.35;;;17.60;99.90;;;;;;4939621;28;92215;-30
2022/08/01 03:17:11;;;;;;;3.53;3.08;;;17.60;99.90;;;;;;4938233;28;93475;-31
2022/08/01 03:19:38;;;;;;;6.53;3.15;;;17.60;99.90;;;;;;4938930;28;94937;-32
2022/08/01 03:22:07;;;;;;;12.53;3.40;;;17.50;99.90;;;;;;4939624;28;94939;-33
2022/08/01 03:24:34;;;;;;;6.00;3.40;;;17.50;99.90;;;;;;4940128;28;94146;-33
2022/08/01 03:27:02;;;;;;;7.40;3.63;;;17.50;99.90;;;;;;4939615;28;94284;-33
2022/08/01 03:29:29;;;;;;;3.27;2.77;;;17.50;99.90;;;;;;4920090;28;94776;-31
2022/08/01 03:31:57;;;;;;;7.03;3.42;;;17.40;99.90;;;;;;4939149;28;94563;-29
2022/08/01 03:34:22;;;;;;;3.77;2.63;;;17.40;99.90;;;;;;4939080;28;92755;-32
2022/08/01 03:36:56;;;;;;;5.10;3.25;;;17.40;99.90;;;;;;4938843;28;92793;-32
2022/08/01 03:39:27;;;;;;;4.72;2.92;;;17.40;99.90;;;;;;4939488;28;94585;-31
2022/08/01 03:41:57;;;;;;;4.93;3.08;;;17.40;99.90;;;;;;4938470;28;95442;-30
2022/08/01 03:44:28;;;;;;;4.13;2.20;;;17.40;99.90;;;;;;4939144;28;92971;-30
2022/08/01 03:47:01;;;;;;;3.40;2.65;;;17.40;99.90;;;;;;4938463;28;92503;-30
2022/08/01 03:49:32;;;;;;;9.77;3.13;;;17.40;99.90;;;;;;4938878;28;96309;-32
2022/08/01 03:52:02;;;;;;;3.30;2.25;;;17.30;99.90;;;;;;4939420;28;94878;-30
2022/08/01 03:54:30;;;;;;;4.18;2.95;;;17.30;99.90;;;;;;4938832;28;93515;-29
2022/08/01 03:56:58;;;;;;;5.53;2.47;;;17.20;99.90;;;;;;4939170;28;92460;-31
2022/08/01 03:59:24;;;;;;;6.85;3.08;;;17.20;99.90;;;;;;4938202;28;93976;-34
2022/08/01 04:01:50;;;;;;;3.13;2.42;;;17.20;99.90;;;;;;4939202;28;95210;-34
2022/08/01 04:04:16;;;;;;;9.13;2.75;;;17.10;99.90;;;;;;4938392;28;93444;-33
2022/08/01 04:06:44;;;;;;;4.50;2.50;;;17.10;99.90;;;;;;4938129;28;93521;-32
2022/08/01 04:09:10;;;;;;;;;;;17.10;99.90;;;;;;4938942;28;94496;-31
2022/08/01 04:11:35;;;;;;;3.40;2.88;;;17.10;99.90;;;;;;4939953;28;94061;-30
2022/08/01 04:14:01;;;;;;;5.90;2.55;;;17.00;99.90;;;;;;4939163;28;92683;-31
2022/08/01 04:16:27;;;;;;;5.65;3.08;;;17.00;99.90;;;;;;4938602;28;94463;-31
2022/08/01 04:18:52;;;;;;;4.13;3.03;;;17.10;99.90;;;;;;4938272;28;93911;-32
2022/08/01 04:21:22;;;;;;;3.25;2.55;;;17.10;99.90;;;;;;4937862;28;94798;-34
2022/08/01 04:23:51;;;;;;;7.28;2.58;;;17.10;99.90;;;;;;4939078;28;92915;-33
2022/08/01 04:26:16;;;;;;;;;;;17.10;99.90;;;;;;4937981;28;93380;-33
2022/08/01 04:28:43;;;;;;;3.38;2.95;;;17.10;99.90;;;;;;4939324;28;95811;-32
2022/08/01 04:31:11;;;;;;;8.18;3.00;;;17.10;99.90;;;;;;4937258;28;95710;-31
2022/08/01 04:33:40;;;;;;;9.13;3.38;;;17.10;99.90;;;;;;4938188;28;92504;-33
2022/08/01 04:36:07;;;;;;;5.90;2.72;;;17.10;99.90;;;;;;4938699;28;92580;-35
2022/08/01 04:38:36;;;;;;;5.13;2.78;;;17.10;99.90;;;;;;4938108;28;95850;-30
2022/08/01 04:41:03;;;;;;;3.80;3.42;;;17.10;99.90;;;;;;4938002;28;94614;-32
2022/08/01 04:43:28;;;;;;;2.90;2.50;;;17.10;99.90;;;;;;4937875;28;92985;-31
2022/08/01 04:45:58;;;;;;;5.55;2.80;;;17.10;99.90;;;;;;4938055;28;93069;-33
2022/08/01 04:48:24;;;;;;;6.53;2.85;;;17.10;99.90;;;;;;4938266;28;94603;-31
2022/08/01 04:50:50;;;;;;;4.22;2.60;;;17.10;99.90;;;;;;4937693;28;94705;-30
2022/08/01 04:53:17;;;;;;;6.57;3.28;;;17.10;99.90;;;;;;4938691;28;93286;-31
2022/08/01 04:55:45;;;;;;;9.50;2.50;;;17.10;99.90;;;;;;4937536;28;95222;-29
2022/08/01 04:58:11;;;;;;;5.07;3.03;;;17.10;99.90;;;;;;4938032;28;94695;-31
2022/08/01 05:00:37;;;;;;;3.85;2.83;;;17.10;99.90;;;;;;4937960;28;94438;-32
2022/08/01 05:03:02;;;;;;;5.38;3.42;;;17.10;99.90;;;;;;4938340;28;93340;-30
2022/08/01 05:05:30;;;;;;;4.10;3.03;;;17.10;99.90;;;;;;4937470;28;94244;-31
2022/08/01 05:07:56;;;;;;;6.93;3.60;;;17.10;99.90;;;;;;4936956;28;95262;-32
2022/08/01 05:10:22;;;;;;;4.60;3.45;;;17.10;99.90;;;;;;4936299;28;94583;-33
2022/08/01 05:12:47;;;;;;;8.25;3.65;;;17.10;99.90;;;;;;4937770;28;91723;-31
2022/08/01 05:15:13;;;;;;;11.73;3.60;;;17.10;99.90;;;;;;4937875;28;93310;-31
2022/08/01 05:17:38;;;;;;;8.48;3.65;;;17.10;99.90;;;;;;4919003;28;96357;-32
2022/08/01 05:20:06;;;;;;;13.95;3.80;;;17.10;99.90;;;;;;4936572;28;94858;-31
2022/08/01 05:22:31;;;;;;;6.05;3.67;;;17.10;99.90;;;;;;4937846;28;93619;-33
2022/08/01 05:24:57;;;;;;;7.78;3.83;;;17.10;99.90;;;;;;4937059;28;94336;-30
2022/08/01 05:27:23;;;;;;;5.32;3.80;;;17.00;99.90;;;;;;4937390;28;94086;-34
2022/08/01 05:29:48;;;;;;;8.68;3.47;;;17.00;99.90;;;;;;4936762;28;93949;-32
2022/08/01 05:32:14;;;;;;;5.57;3.85;;;17.00;99.90;;;;;;4936992;28;94509;-33
2022/08/01 05:34:39;;;;;;;14.02;4.63;;;17.00;99.90;;;;;;4937520;28;93540;-29
2022/08/01 05:37:05;;;;;;;8.57;4.25;;;16.90;99.90;;;;;;4937726;28;93933;-31
2022/08/01 05:39:31;;;;;;;7.25;3.70;;;16.90;99.90;;;;;;4937327;28;93724;-31
2022/08/01 05:41:56;;;;;;;11.95;3.53;;;16.90;99.90;;;;;;4935966;28;94541;-31
2022/08/01 05:44:22;;;;;;;7.25;4.18;;;16.90;99.90;;;;;;4935886;28;95561;-34
2022/08/01 05:46:47;;;;;;;11.25;4.32;;;16.90;99.90;;;;;;4936815;28;94661;-33
2022/08/01 05:49:13;;;;;;;9.60;3.95;;;16.90;99.90;;;;;;4936998;28;94933;-34
2022/08/01 05:51:39;;;;;;;7.95;3.35;;;16.90;99.90;;;;;;4938320;28;93787;-31
2022/08/01 05:54:04;;;;;;;7.85;3.92;;;16.80;99.90;;;;;;4936998;28;94438;-31
2022/08/01 05:56:30;;;;;;;6.85;4.10;;;16.80;99.90;;;;;;4943261;28;95038;-29
2022/08/01 05:58:55;;;;;;;11.15;4.05;;;16.80;99.90;;;;;;4939097;28;94959;-32
2022/08/01 06:01:21;;;;;;;8.15;3.50;;;16.80;99.90;;;;;;4945321;28;91493;-30
2022/08/01 06:03:47;;;;;;;16.88;4.40;;;16.70;99.90;;;;;;4945001;28;93136;-34
2022/08/01 06:06:13;;;;;;;10.77;4.70;;;16.70;99.90;;;;;;4944925;28;94773;-35
2022/08/01 06:08:40;;;;;;;13.25;4.05;;;16.70;99.90;;;;;;4934423;28;94417;-33
2022/08/01 06:11:05;;;;;;;15.70;3.80;;;16.70;99.90;;;;;;4934520;28;94798;-35
2022/08/01 06:13:31;;;;;;;9.50;3.83;;;16.70;99.90;;;;;;4934905;28;93408;-34
2022/08/01 06:15:57;;;;;;;12.38;6.35;;;16.70;99.90;;;;;;4934642;28;94699;-32
2022/08/01 06:18:23;;;;;;;9.63;3.25;;;16.70;99.90;;;;;;4934671;28;93920;-32
2022/08/01 06:20:48;;;;;;;12.10;3.67;;;16.70;99.90;;;;;;4935177;28;93334;-31
2022/08/01 06:23:15;;;;;;;9.38;4.05;;;16.70;99.90;;;;;;4933877;28;94630;-32
2022/08/01 06:25:42;;;;;;;9.35;4.75;;;16.70;99.90;;;;;;4933413;28;94426;-34
2022/08/01 06:28:07;;;;;;;7.93;3.95;;;16.70;99.90;;;;;;4933930;28;94253;-30
2022/08/01 06:30:33;;;;;;;11.93;4.97;;;16.80;99.90;;;;;;4934005;28;92206;-32
2022/08/01 06:32:59;;;;;;;14.50;4.88;;;16.80;99.90;;;;;;4934523;28;96004;-31
2022/08/01 06:35:26;;;;;;;8.55;4.78;;;16.80;99.90;;;;;;4934145;28;94690;-32
2022/08/01 06:37:51;;;;;;;9.07;4.18;;;16.80;99.90;;;;;;4934369;28;94535;-30
2022/08/01 06:40:17;;;;;;;8.02;4.45;;;16.80;99.90;;;;;;4934935;28;93160;-33
2022/08/01 06:42:45;;;;;;;24.13;5.75;;;16.90;99.90;;;;;;4916501;28;93992;-32
2022/08/01 06:45:11;;;;;;;10.60;4.90;;;16.90;99.90;;;;;;4933299;28;95186;-31
2022/08/01 06:47:39;;;;;;;23.33;5.35;;;17.00;99.90;;;;;;4935345;28;94476;-33
2022/08/01 06:50:06;;;;;;;8.73;4.47;;;17.00;99.90;;;;;;4938435;28;93433;-31
2022/08/01 06:52:32;;;;;;;10.60;3.93;;;17.10;99.90;;;;;;4937543;28;93623;-32
2022/08/01 06:54:58;;;;;;;20.85;5.28;;;17.20;99.90;;;;;;4938015;28;93483;-36
2022/08/01 06:57:23;;;;;;;10.00;4.40;;;17.20;99.90;;;;;;4937342;28;95594;-33
2022/08/01 06:59:49;;;;;;;9.52;4.10;;;17.20;99.90;;;;;;4937581;28;93747;-32
2022/08/01 07:02:14;;;;;;;14.40;4.85;;;17.30;99.90;;;;;;4937955;28;94122;-30
2022/08/01 07:04:40;;;;;;;12.63;4.25;;;17.30;99.90;;;;;;4937451;28;94657;-32
2022/08/01 07:07:06;;;;;;;12.32;4.70;;;17.30;99.90;;;;;;4937764;28;94158;-33
2022/08/01 07:09:32;;;;;;;11.85;5.20;;;17.40;99.90;;;;;;4937522;28;93901;-32
2022/08/01 07:11:57;;;;;;;14.02;4.38;;;17.40;99.90;;;;;;4938038;28;92670;-32
2022/08/01 07:14:23;;;;;;;10.13;5.10;;;17.50;99.90;;;;;;4937803;28;92791;-32
2022/08/01 07:16:49;;;;;;;18.58;5.57;;;17.50;99.90;;;;;;4936509;28;93477;-31
2022/08/01 07:19:15;;;;;;;9.15;3.53;;;17.60;99.90;;;;;;4937648;28;94667;-33
2022/08/01 07:21:41;;;;;;;11.20;4.65;;;17.60;99.90;;;;;;4936791;28;94393;-31
2022/08/01 07:24:09;;;;;;;9.05;4.55;;;17.60;99.90;;;;;;4937151;28;95456;-31
2022/08/01 07:26:34;;;;;;;11.07;5.03;;;17.60;99.90;;;;;;4938008;28;94852;-31
2022/08/01 07:29:00;;;;;;;14.90;4.80;;;17.60;99.90;;;;;;4937708;28;93629;-33
2022/08/01 07:31:26;;;;;;;14.02;5.32;;;17.60;99.90;;;;;;4937296;28;94241;-34
2022/08/01 07:33:52;;;;;;;14.15;4.63;;;17.60;99.90;;;;;;4936725;28;96164;-33
2022/08/01 07:36:18;;;;;;;10.35;4.32;;;17.60;99.90;;;;;;4936845;28;94780;-32
2022/08/01 07:38:44;;;;;;;11.48;4.25;;;17.60;99.90;;;;;;4938304;28;92529;-32
2022/08/01 07:41:10;;;;;;;10.95;4.93;;;17.50;99.90;;;;;;4936938;28;92995;-31
2022/08/01 07:43:36;;;;;;;13.63;4.53;;;17.50;99.90;;;;;;4936432;28;94701;-32
2022/08/01 07:46:05;;;;;;;7.50;3.65;;;17.50;99.90;;;;;;4936811;28;94971;-31
2022/08/01 07:48:31;;;;;;;10.98;4.03;;;17.50;99.90;;;;;;4937594;28;92216;-31
2022/08/01 07:50:57;;;;;;;13.07;5.05;;;17.50;99.90;;;;;;4919397;28;94326;-31
2022/08/01 07:53:23;;;;;;;15.98;5.07;;;17.60;99.90;;;;;;4937108;28;94698;-30
2022/08/01 07:55:48;;;;;;;18.65;4.22;;;17.60;99.90;;;;;;4936740;28;94715;-32
2022/08/01 07:58:15;;;;;;;10.57;4.68;;;17.60;99.90;;;;;;4936979;28;94485;-34
2022/08/01 08:00:41;;;;;;;9.38;5.00;;;17.60;99.90;;;;;;4936097;28;95003;-31
2022/08/01 08:03:06;;;;;;;14.38;4.20;;;17.60;99.90;;;;;;4936279;28;93793;-33
2022/08/01 08:05:34;;;;;;;14.15;4.22;;;17.70;99.90;;;;;;4937021;28;94400;-33
2022/08/01 08:08:01;;;;;;;8.25;3.20;;;17.60;99.90;;;;;;4936783;28;92170;-31
2022/08/01 08:10:27;;;;;;;8.35;3.92;;;17.60;99.90;;;;;;4935715;28;95984;-31
2022/08/01 08:12:53;;;;;;;19.92;5.75;;;17.60;99.90;;;;;;4936443;28;95574;-32
2022/08/01 08:15:18;;;;;;;15.45;4.65;;;17.70;99.90;;;;;;4936419;28;94539;-31
2022/08/01 08:17:44;;;;;;;9.45;3.67;;;17.70;99.90;;;;;;4937639;28;92970;-34
2022/08/01 08:20:10;;;;;;;8.13;3.03;;;17.70;99.90;;;;;;4936197;28;94843;-31
2022/08/01 08:22:36;;;;;;;13.48;5.20;;;17.80;99.90;;;;;;4936411;28;94737;-31
2022/08/01 08:25:02;;;;;;;15.98;4.85;;;17.80;99.90;;;;;;4935740;28;94099;-31
2022/08/01 08:27:27;;;;;;;8.88;3.80;;;17.70;99.90;;;;;;4936941;28;91399;-32
2022/08/01 08:29:53;;;;;;;18.33;4.75;;;17.80;99.90;;;;;;4936358;28;94295;-32
2022/08/01 08:32:18;;;;;;;9.18;4.47;;;17.80;99.90;;;;;;4936319;28;94724;-30
2022/08/01 08:34:44;;;;;;;10.90;5.05;;;17.90;99.90;;;;;;4934846;28;94392;-33
2022/08/01 08:37:10;;;;;;;10.68;4.25;;;17.90;99.90;;;;;;4936325;28;93343;-32
2022/08/01 08:39:36;;;;;;;10.50;4.20;;;17.90;99.90;;;;;;4935806;28;93449;-33
2022/08/01 08:42:07;;;;;;;8.15;3.67;;;18.00;99.90;;;;;;4936394;28;94694;-30
2022/08/01 08:44:32;;;;;;;9.50;4.15;;;18.00;99.90;;;;;;4935410;28;94414;-35
2022/08/01 08:47:01;;;;;;;9.70;3.95;;;18.10;99.90;;;;;;4936625;28;92436;-33
2022/08/01 08:49:28;;;;;;;13.05;4.43;;;18.10;99.90;;;;;;4936271;28;94163;-32
2022/08/01 08:51:58;;;;;;;13.73;3.90;;;18.20;99.90;;;;;;4936212;28;94788;-33
2022/08/01 08:54:24;;;;;;;12.77;3.92;;;18.30;99.90;;;;;;4923125;28;93359;-33
2022/08/01 08:56:52;;;;;;;6.60;3.45;;;18.30;99.90;;;;;;4936104;28;94855;-34
2022/08/01 08:59:18;;;;;;;14.57;4.47;;;18.30;99.90;;;;;;4917635;28;94713;-31
2022/08/01 09:01:44;;;;;;;16.08;5.00;;;18.40;99.90;;;;;;4935982;28;94390;-34
2022/08/01 09:04:10;;;;;;;8.45;3.75;;;18.40;99.90;;;;;;4935472;28;94336;-34
2022/08/01 09:06:36;;;;;;;6.10;3.05;;;18.50;99.90;;;;;;4919082;28;93792;-32
2022/08/01 09:09:03;;;;;;;6.78;3.28;;;18.80;99.90;;;;;;4935342;28;93160;-31
2022/08/01 09:11:28;;;;;;;12.20;3.45;;;18.90;99.90;;;;;;4944450;28;94672;-31
2022/08/01 09:14:04;;;;;;;7.10;3.58;;;19.00;99.90;;;;;;4945109;28;94796;-32
2022/08/01 09:16:31;;;;;;;13.07;4.72;;;19.00;99.90;;;;;;4946134;28;92059;-32
2022/08/01 09:19:12;;;;;;;7.10;3.78;;;19.20;99.90;;;;;;4947596;28;92873;-31
2022/08/01 09:21:38;;;;;;;9.27;4.40;;;19.30;99.90;;;;;;4946971;28;94631;-32
2022/08/01 09:24:12;;;;;;;6.80;3.55;;;19.50;99.90;;;;;;4945981;28;94797;-32
2022/08/01 09:26:38;;;;;;;5.15;2.75;;;19.70;99.90;;;;;;4945607;28;93216;-32
2022/08/01 09:29:06;;;;;;;12.73;3.78;;;19.80;99.90;;;;;;4946631;28;93379;-31
2022/08/01 09:31:44;;;;;;;11.77;3.72;;;19.60;99.90;;;;;;4945956;28;95070;-31
2022/08/01 09:34:10;;;;;;;;;;;19.40;99.90;;;;;;4945257;28;94668;-32
2022/08/01 09:36:56;;;;;;;4.32;3.47;;;19.40;99.90;;;;;;4946034;28;93202;-33
2022/08/01 09:39:30;;;;;;;8.57;3.53;;;19.70;99.90;;;;;;4944171;28;92176;-31
2022/08/01 09:41:58;;;;;;;6.03;3.75;;;19.80;99.90;;;;;;4946958;28;94145;-32
2022/08/01 09:44:43;;;;;;;10.15;3.85;;;19.90;99.90;;;;;;4945435;28;93873;-31
2022/08/01 09:47:09;;;;;;;6.13;3.00;;;19.90;99.90;;;;;;4947162;28;92433;-32
2022/08/01 09:49:36;;;;;;;12.38;3.40;;;19.90;99.90;;;;;;4944559;28;94540;-31
2022/08/01 09:52:16;;;;;;;4.65;2.88;;;19.90;99.90;;;;;;4946131;28;95151;-31
2022/08/01 09:54:50;;;;;;;10.20;3.65;;;19.90;99.90;;;;;;4944163;28;94386;-32
2022/08/01 09:57:18;;;;;;;8.30;2.72;;;19.90;99.90;;;;;;4945891;28;93119;-31
2022/08/01 09:59:47;;;;;;;7.30;2.50;;;19.80;99.90;;;;;;4945951;28;93150;-31
2022/08/01 10:02:26;;;;;;;3.88;3.00;;;19.90;99.90;;;;;;4944818;28;94895;-31
2022/08/01 10:04:53;;;;;;;4.30;2.85;;;19.90;99.90;;;;;;4945344;28;94861;-33
2022/08/01 10:07:19;;;;;;;15.67;4.23;;;19.90;99.90;;;;;;4945943;28;92480;-32
2022/08/01 10:09:46;;;;;;;7.22;3.53;;;20.00;99.90;;;;;;4945442;28;93027;-33
2022/08/01 10:12:14;;;;;;;14.85;3.47;;;20.00;99.90;;;;;;4945463;28;94835;-32
2022/08/01 10:14:41;;;;;;;4.93;2.28;;;20.10;99.90;;;;;;4943570;28;94545;-33
2022/08/01 10:17:13;;;;;;;12.05;3.95;;;20.00;99.90;;;;;;4945990;28;92884;-33
2022/08/01 10:19:41;;;;;;;10.38;4.10;;;20.00;99.90;;;;;;4945260;28;93191;-33
2022/08/01 10:22:08;;;;;;;8.48;3.45;;;20.00;99.90;;;;;;4945756;28;94438;-32
2022/08/01 10:24:38;;;;;;;8.95;3.22;;;20.10;99.90;;;;;;4948686;28;94493;-32
2022/08/01 10:27:08;;;;;;;4.47;2.92;;;20.20;99.90;;;;;;4948243;28;93111;-33
2022/08/01 10:29:42;;;;;;;9.35;3.50;;;20.30;99.90;;;;;;4924547;28;92213;-32
2022/08/01 10:32:09;;;;;;;9.23;3.63;;;20.30;99.90;;;;;;4940522;28;93102;-30
2022/08/01 10:34:36;;;;;;;6.28;3.10;;;20.30;99.90;;;;;;4941050;28;93698;-32
2022/08/01 10:37:04;;;;;;;5.63;2.80;;;20.20;99.90;;;;;;4949154;28;92973;-32
2022/08/01 10:39:31;;;;;;;7.57;3.05;;;20.20;99.90;;;;;;4939766;28;93096;-34
2022/08/01 10:41:58;;;;;;;7.00;2.77;;;20.10;99.90;;;;;;4945088;28;94877;-32
2022/08/01 10:44:25;;;;;;;7.20;2.88;;;20.10;99.90;;;;;;4939862;28;94458;-32
2022/08/01 10:46:57;;;;;;;7.63;2.88;;;20.10;99.90;;;;;;4940157;28;94036;-34
2022/08/01 10:49:28;;;;;;;9.65;3.33;;;20.10;99.90;;;;;;4938788;28;93142;-31
2022/08/01 10:51:54;;;;;;;6.55;2.95;;;20.20;99.90;;;;;;4942057;28;94775;-34
2022/08/01 10:54:25;;;;;;;6.72;3.47;;;20.30;99.90;;;;;;4941553;28;94307;-34
2022/08/01 10:56:52;;;;;;;8.32;3.63;;;20.30;99.90;;;;;;4922797;28;93006;-35
2022/08/01 10:59:23;;;;;;;8.68;4.68;;;20.30;99.90;;;;;;4939527;28;93733;-32
2022/08/01 11:02:04;;;;;;;3.10;2.28;;;20.30;99.90;;;;;;4939504;28;95232;-34
2022/08/01 11:04:42;;;;;;;8.18;2.70;;;20.20;99.90;;;;;;4938627;28;94708;-34
2022/08/01 11:07:15;;;;;;;8.02;2.88;;;20.20;99.90;;;;;;4940057;28;92997;-31
2022/08/01 11:09:47;;;;;;;6.18;3.10;;;20.20;99.90;;;;;;4936737;28;92144;-31
2022/08/01 11:12:17;;;;;;;4.35;2.70;;;20.30;99.90;;;;;;4937491;28;94824;-34
2022/08/01 11:14:58;;;;;;;2.88;1.88;;;20.50;99.90;;;;;;4939107;28;94565;-32
2022/08/01 11:17:35;;;;;;;6.40;2.72;;;20.70;99.90;;;;;;4942724;28;94210;-33
2022/08/01 11:20:11;;;;;;;4.80;2.20;;;20.70;99.90;;;;;;4944270;28;92286;-33
2022/08/01 11:23:04;;;;;;;9.82;2.38;;;20.80;99.90;;;;;;4943689;28;92394;-32
2022/08/01 11:25:36;;;;;;;6.43;2.55;;;20.70;99.90;;;;;;4936572;28;92606;-35
2022/08/01 11:28:13;;;;;;;5.72;2.08;;;20.50;99.90;;;;;;4938283;28;93591;-31
2022/08/01 11:30:40;;;;;;;4.82;2.75;;;20.40;99.90;;;;;;4936959;28;94035;-32
2022/08/01 11:33:07;;;;;;;7.95;2.75;;;20.20;99.90;;;;;;4938925;28;94533;-32
2022/08/01 11:35:34;;;;;;;6.43;2.63;;;20.10;99.90;;;;;;4942139;28;94640;-33
2022/08/01 11:38:29;;;;;;;3.13;2.50;;;20.20;99.90;;;;;;4937548;28;93492;-34
2022/08/01 11:41:23;;;;;;;3.65;2.22;;;20.30;99.90;;;;;;4940838;28;93600;-31
2022/08/01 11:44:02;;;;;;;7.13;3.25;;;20.50;99.90;;;;;;4936876;28;94200;-32
2022/08/01 11:46:50;;;;;;;6.68;2.35;;;20.70;99.90;;;;;;4939244;28;94795;-36
2022/08/01 11:49:25;;;;;;;;;;;20.60;99.90;;;;;;4939153;28;93084;-35
2022/08/01 11:51:58;;;;;;;4.38;2.28;;;20.50;99.90;;;;;;4937943;28;94049;-32
2022/08/01 11:54:29;;;;;;;4.32;2.22;;;20.40;99.90;;;;;;4935963;28;94531;-35
2022/08/01 11:56:57;;;;;;;3.78;2.33;;;20.50;99.90;;;;;;4936215;28;96047;-32
2022/08/01 11:59:23;;;;;;;7.07;2.28;;;20.70;99.90;;;;;;4936589;28;93912;-31
2022/08/01 12:01:49;;;;;;;5.68;2.40;;;20.80;99.90;;;;;;4937250;28;94296;-34
2022/08/01 12:04:14;;;;;;;4.20;2.47;;;20.80;99.90;;;;;;4936409;28;94664;-31
2022/08/01 12:06:40;;;;;;;8.18;2.20;;;20.80;99.90;;;;;;4936141;28;94441;-32
2022/08/01 12:09:20;;;;;;;4.60;2.30;;;20.70;99.90;;;;;;4937045;28;94505;-34
2022/08/01 12:11:46;;;;;;;6.72;2.17;;;20.80;99.90;;;;;;4936814;28;93929;-31
2022/08/01 12:14:20;;;;;;;3.88;2.75;;;20.70;99.90;;;;;;4936230;28;93988;-33
2022/08/01 12:16:53;;;;;;;5.93;2.25;;;20.70;99.90;;;;;;4971111;22;94502;-33
2022/08/01 12:19:23;;;;;;;4.50;1.75;;;20.80;99.90;;;;;;4936805;28;94558;-32
2022/08/01 12:22:15;;;;;;;9.07;2.30;;;20.80;99.90;;;;;;4934944;28;93538;-34
2022/08/01 12:24:42;;;;;;;7.70;2.72;;;20.80;99.90;;;;;;4935960;28;94437;-33
2022/08/01 12:27:10;;;;;;;5.82;2.47;;;20.70;99.90;;;;;;4935575;28;95658;-31
2022/08/01 12:29:38;;;;;;;5.57;2.57;;;20.70;99.90;;;;;;4934924;28;92605;-34
2022/08/01 12:32:03;;;;;;;;;;;20.80;99.90;;;;;;4936293;28;93089;-31
2022/08/01 12:34:30;;;;;;;4.68;2.10;;;20.70;99.90;;;;;;4937058;28;94693;-31
2022/08/01 12:37:00;;;;;;;5.88;1.95;;;20.70;99.90;;;;;;4935072;28;94594;-34
2022/08/01 12:39:32;;;;;;;7.13;2.20;;;20.70;99.90;;;;;;4935601;28;91828;-33
2022/08/01 12:41:58;;;;;;;2.72;1.80;;;20.70;99.90;;;;;;4931827;28;94144;-33
2022/08/01 12:44:25;;;;;;;5.03;2.38;;;20.70;99.90;;;;;;4923606;28;94592;-34
2022/08/01 12:46:51;;;;;;;4.53;1.85;;;20.80;99.90;;;;;;4940634;28;94334;-33
2022/08/01 12:49:17;;;;;;;4.43;2.05;;;20.80;99.90;;;;;;4940452;28;93940;-33
2022/08/01 12:51:43;;;;;;;2.50;2.10;;;20.90;99.90;;;;;;4935801;28;92715;-31
2022/08/01 12:54:09;;;;;;;9.63;2.35;;;20.80;99.90;;;;;;4938610;28;95426;-32